createdAt,value
2018-08-06T00:01:32.493Z,2.37
2018-08-06T00:04:29.744Z,2.23
2018-08-06T00:07:27.392Z,1.87
2018-08-06T00:10:26.667Z,1.90
2018-08-06T00:13:23.546Z,1.97
2018-08-06T00:16:21.480Z,2.07
2018-08-06T00:19:18.788Z,2.07
2018-08-06T00:22:16.355Z,1.90
2018-08-06T00:25:15.295Z,1.93
2018-08-06T00:28:12.295Z,1.87
2018-08-06T00:31:09.860Z,2.00
2018-08-06T00:34:07.645Z,2.30
2018-08-06T00:37:05.392Z,1.97
2018-08-06T00:40:02.775Z,2.57
2018-08-06T00:42:59.735Z,2.03
2018-08-06T00:45:57.865Z,2.10
2018-08-06T00:48:55.151Z,2.17
2018-08-06T00:51:52.332Z,2.17
2018-08-06T00:54:49.664Z,2.40
2018-08-06T00:57:46.635Z,2.27
2018-08-06T01:00:43.945Z,1.90
2018-08-06T01:03:41.085Z,2.20
2018-08-06T01:06:38.199Z,2.13
2018-08-06T01:09:35.648Z,2.20
2018-08-06T01:12:32.742Z,2.27
2018-08-06T01:15:32.699Z,2.43
2018-08-06T01:18:29.976Z,2.37
2018-08-06T01:21:27.563Z,2.20
2018-08-06T01:24:25.554Z,2.10
2018-08-06T01:27:23.503Z,2.47
2018-08-06T01:30:22.698Z,2.40
2018-08-06T01:33:19.652Z,2.07
2018-08-06T01:36:17.824Z,2.57
2018-08-06T01:39:14.839Z,2.77
2018-08-06T01:42:12.847Z,2.50
2018-08-06T01:45:10.144Z,2.40
2018-08-06T01:48:07.501Z,2.47
2018-08-06T01:51:04.831Z,2.43
2018-08-06T01:54:02.595Z,1.90
2018-08-06T01:56:59.959Z,2.40
2018-08-06T01:59:57.110Z,2.33
2018-08-06T02:02:54.671Z,2.47
2018-08-06T02:05:52.050Z,2.60
2018-08-06T02:08:49.175Z,2.60
2018-08-06T02:11:46.584Z,2.13
2018-08-06T02:14:43.866Z,2.20
2018-08-06T02:17:41.059Z,2.00
2018-08-06T02:20:39.359Z,2.47
2018-08-06T02:23:36.586Z,2.40
2018-08-06T02:26:33.765Z,2.20
2018-08-06T02:29:30.722Z,2.47
2018-08-06T02:32:27.763Z,2.40
2018-08-06T02:35:26.836Z,2.20
2018-08-06T02:38:24.784Z,2.57
2018-08-06T02:41:21.763Z,2.80
2018-08-06T02:44:19.027Z,1.97
2018-08-06T02:47:16.941Z,2.60
2018-08-06T02:50:14.135Z,2.30
2018-08-06T02:53:11.528Z,2.40
2018-08-06T02:56:08.907Z,2.70
2018-08-06T02:59:07.070Z,2.20
2018-08-06T03:02:04.211Z,2.07
2018-08-06T03:05:01.296Z,2.50
2018-08-06T03:07:58.763Z,2.43
2018-08-06T03:10:56.864Z,2.00
2018-08-06T03:13:54.683Z,2.30
2018-08-06T03:16:51.662Z,2.43
2018-08-06T03:19:49.275Z,2.47
2018-08-06T03:22:46.857Z,2.53
2018-08-06T03:25:44.016Z,2.63
2018-08-06T03:28:40.949Z,2.50
2018-08-06T03:31:38.980Z,2.30
2018-08-06T03:34:37.011Z,2.33
2018-08-06T03:37:34.308Z,2.40
2018-08-06T03:40:31.444Z,2.17
2018-08-06T03:43:28.711Z,2.63
2018-08-06T03:46:26.054Z,3.07
2018-08-06T03:49:24.139Z,2.43
2018-08-06T03:52:21.580Z,2.27
2018-08-06T03:55:19.877Z,2.53
2018-08-06T03:58:17.139Z,2.37
2018-08-06T04:01:15.136Z,2.50
2018-08-06T04:04:12.588Z,2.90
2018-08-06T04:07:10.052Z,2.07
2018-08-06T04:10:07.286Z,2.47
2018-08-06T04:13:04.668Z,2.80
2018-08-06T04:16:01.668Z,3.17
2018-08-06T04:18:59.779Z,2.80
2018-08-06T04:21:56.967Z,2.70
2018-08-06T04:24:55.024Z,3.13
2018-08-06T04:27:53.151Z,2.47
2018-08-06T04:30:51.202Z,2.97
2018-08-06T04:33:48.287Z,2.20
2018-08-06T04:36:45.488Z,2.40
2018-08-06T04:39:43.523Z,2.60
2018-08-06T04:42:40.922Z,2.40
2018-08-06T04:45:38.015Z,1.80
2018-08-06T04:48:35.775Z,2.60
2018-08-06T04:51:33.815Z,2.83
2018-08-06T04:54:30.865Z,2.50
2018-08-06T04:57:28.115Z,2.00
2018-08-06T05:00:27.034Z,2.30
2018-08-06T05:03:24.706Z,2.67
2018-08-06T05:06:22.762Z,2.20
2018-08-06T05:09:21.876Z,2.27
2018-08-06T05:12:19.401Z,2.00
2018-08-06T05:15:16.892Z,2.50
2018-08-06T05:18:14.965Z,2.27
2018-08-06T05:21:12.735Z,2.23
2018-08-06T05:24:16.559Z,2.10
2018-08-06T05:27:14.329Z,1.80
2018-08-06T05:30:11.699Z,1.93
2018-08-06T05:33:09.749Z,2.10
2018-08-06T05:36:07.852Z,2.47
2018-08-06T05:39:04.918Z,2.20
2018-08-06T05:42:01.936Z,2.10
2018-08-06T05:44:59.924Z,2.47
2018-08-06T05:47:56.959Z,2.17
2018-08-06T05:50:54.818Z,1.90
2018-08-06T05:53:52.843Z,2.57
2018-08-06T05:56:50.944Z,2.30
2018-08-06T05:59:48.581Z,2.17
2018-08-06T06:02:46.592Z,1.97
2018-08-06T06:05:44.679Z,1.90
2018-08-06T06:08:41.962Z,2.33
2018-08-06T06:11:39.808Z,2.00
2018-08-06T06:14:37.820Z,2.47
2018-08-06T06:17:35.362Z,2.10
2018-08-06T06:20:32.555Z,2.67
2018-08-06T06:23:30.621Z,2.13
2018-08-06T06:26:27.867Z,2.55
2018-08-06T06:29:24.918Z,2.30
2018-08-06T06:32:23.232Z,2.05
2018-08-06T06:35:21.571Z,1.90
2018-08-06T06:38:19.677Z,2.15
2018-08-06T06:41:17.723Z,1.90
2018-08-06T06:44:16.759Z,1.90
2018-08-06T06:47:14.104Z,2.05
2018-08-06T06:50:11.968Z,1.55
2018-08-06T06:53:10.037Z,1.90
2018-08-06T06:56:08.008Z,1.70
2018-08-06T06:59:06.012Z,2.08
2018-08-06T07:02:04.033Z,1.55
2018-08-06T07:05:01.952Z,1.67
2018-08-06T07:07:59.993Z,1.50
2018-08-06T07:10:57.294Z,1.80
2018-08-06T07:13:55.599Z,1.80
2018-08-06T07:16:52.543Z,2.10
2018-08-06T07:19:50.584Z,1.80
2018-08-06T07:22:47.501Z,1.75
2018-08-06T07:25:44.630Z,1.65
2018-08-06T07:28:41.844Z,1.90
2018-08-06T07:31:39.712Z,2.02
2018-08-06T07:34:37.146Z,2.00
2018-08-06T07:37:35.153Z,1.70
2018-08-06T07:40:33.107Z,1.57
2018-08-06T07:43:30.480Z,1.50
2018-08-06T07:46:28.044Z,1.30
2018-08-06T07:59:15.974Z,1.25
2018-08-06T08:02:14.157Z,1.40
2018-08-06T08:05:11.403Z,1.15
2018-08-06T08:08:09.574Z,1.22
2018-08-06T08:11:07.499Z,1.00
2018-08-06T08:14:04.848Z,1.10
2018-08-06T08:17:02.284Z,1.20
2018-08-06T08:19:59.658Z,1.30
2018-08-06T08:22:57.514Z,1.17
2018-08-06T08:25:55.131Z,1.20
2018-08-06T08:28:52.429Z,1.02
2018-08-06T08:31:50.763Z,1.10
2018-08-06T08:34:50.664Z,1.30
2018-08-06T08:37:49.112Z,1.40
2018-08-06T08:40:46.795Z,1.40
2018-08-06T08:43:43.712Z,1.50
2018-08-06T08:46:40.537Z,1.30
2018-08-06T08:49:38.286Z,1.20
2018-08-06T08:52:35.979Z,1.20
2018-08-06T08:55:33.931Z,1.50
2018-08-06T08:58:31.269Z,1.40
2018-08-06T09:01:28.174Z,1.07
2018-08-06T09:04:25.134Z,1.30
2018-08-06T09:07:22.460Z,0.80
2018-08-06T09:10:20.672Z,1.25
2018-08-06T09:13:18.024Z,0.93
2018-08-06T09:16:15.107Z,1.10
2018-08-06T09:19:12.972Z,1.32
2018-08-06T09:22:11.258Z,1.00
2018-08-06T09:25:08.364Z,0.88
2018-08-06T09:28:06.107Z,1.15
2018-08-06T09:31:03.555Z,1.00
2018-08-06T09:34:00.964Z,1.10
2018-08-06T09:36:59.199Z,0.75
2018-08-06T09:39:56.845Z,0.93
2018-08-06T09:42:54.829Z,0.80
2018-08-06T09:45:52.132Z,1.20
2018-08-06T09:48:49.288Z,0.90
2018-08-06T09:51:47.033Z,1.07
2018-08-06T09:54:44.175Z,0.95
2018-08-06T09:57:41.406Z,0.90
2018-08-06T10:00:46.547Z,1.17
2018-08-06T10:03:44.444Z,1.07
2018-08-06T10:06:41.700Z,0.98
2018-08-06T10:09:38.839Z,1.10
2018-08-06T10:12:36.021Z,1.03
2018-08-06T10:15:33.602Z,1.00
2018-08-06T10:18:31.587Z,0.80
2018-08-06T10:21:28.767Z,1.00
2018-08-06T10:24:26.001Z,1.20
2018-08-06T10:27:23.324Z,1.10
2018-08-06T10:30:27.169Z,1.13
2018-08-06T10:33:24.782Z,1.00
2018-08-06T10:36:21.691Z,1.10
2018-08-06T10:39:20.667Z,0.80
2018-08-06T10:42:17.480Z,1.00
2018-08-06T10:45:14.339Z,0.97
2018-08-06T10:48:11.345Z,0.90
2018-08-06T10:51:08.943Z,1.10
2018-08-06T10:54:05.739Z,0.95
2018-08-06T10:57:03.570Z,1.25
2018-08-06T11:00:01.214Z,0.90
2018-08-06T11:02:58.214Z,0.60
2018-08-06T11:05:55.823Z,0.85
2018-08-06T11:08:52.985Z,0.90
2018-08-06T11:11:50.583Z,0.90
2018-08-06T11:14:48.741Z,0.80
2018-08-06T11:17:47.143Z,1.05
2018-08-06T11:20:45.080Z,0.80
2018-08-06T11:23:42.565Z,0.70
2018-08-06T11:26:39.648Z,0.90
2018-08-06T11:29:37.169Z,0.65
2018-08-06T11:32:35.031Z,0.80
2018-08-06T11:35:33.863Z,0.80
2018-08-06T11:38:31.645Z,0.70
2018-08-06T11:41:29.602Z,0.95
2018-08-06T11:44:27.691Z,1.02
2018-08-06T11:47:25.504Z,0.80
2018-08-06T11:50:23.430Z,0.90
2018-08-06T11:53:20.668Z,1.13
2018-08-06T11:56:18.747Z,1.00
2018-08-06T11:59:16.621Z,0.83
2018-08-06T12:02:13.683Z,0.90
2018-08-06T12:05:11.100Z,0.90
2018-08-06T12:08:09.103Z,0.97
2018-08-06T12:11:06.871Z,1.00
2018-08-06T12:14:04.052Z,0.97
2018-08-06T12:17:02.007Z,0.90
2018-08-06T12:20:00.084Z,0.93
2018-08-06T12:22:59.000Z,0.90
2018-08-06T12:25:56.568Z,0.90
2018-08-06T12:28:54.043Z,0.93
2018-08-06T12:31:51.183Z,0.87
2018-08-06T12:34:49.560Z,0.87
2018-08-06T12:37:46.899Z,0.90
2018-08-06T12:40:44.260Z,0.90
2018-08-06T12:43:41.564Z,0.90
2018-08-06T12:46:39.526Z,0.93
2018-08-06T12:49:37.122Z,0.77
2018-08-06T12:52:35.107Z,0.90
2018-08-06T12:55:32.310Z,1.00
2018-08-06T12:58:30.306Z,1.20
2018-08-06T13:01:27.553Z,0.93
2018-08-06T13:04:25.478Z,0.90
2018-08-06T13:07:22.823Z,0.87
2018-08-06T13:10:20.927Z,0.67
2018-08-06T13:13:18.992Z,0.60
2018-08-06T13:16:17.104Z,0.80
2018-08-06T13:19:16.473Z,0.80
2018-08-06T13:22:14.441Z,0.90
2018-08-06T13:25:11.633Z,1.00
2018-08-06T13:28:09.423Z,0.70
2018-08-06T13:31:07.085Z,0.78
2018-08-06T13:34:04.308Z,0.78
2018-08-06T13:37:02.456Z,0.93
2018-08-06T13:40:00.569Z,0.80
2018-08-06T13:42:57.751Z,0.90
2018-08-06T13:45:55.664Z,0.80
2018-08-06T13:48:52.878Z,0.83
2018-08-06T13:51:59.430Z,0.90
2018-08-06T13:54:57.243Z,1.00
2018-08-06T13:57:54.423Z,0.73
2018-08-06T14:00:52.029Z,1.10
2018-08-06T14:03:49.403Z,1.00
2018-08-06T14:06:46.551Z,1.00
2018-08-06T14:09:44.244Z,0.80
2018-08-06T14:12:41.698Z,1.00
2018-08-06T14:15:39.069Z,0.80
2018-08-06T14:18:37.170Z,0.98
2018-08-06T14:21:34.859Z,1.10
2018-08-06T14:24:32.827Z,1.00
2018-08-06T14:27:29.963Z,0.90
2018-08-06T14:30:28.340Z,0.90
2018-08-06T14:33:25.781Z,0.90
2018-08-06T14:36:23.487Z,1.30
2018-08-06T14:39:22.746Z,1.10
2018-08-06T14:42:20.724Z,0.90
2018-08-06T14:45:17.952Z,1.10
2018-08-06T14:48:15.832Z,1.15
2018-08-06T14:51:13.153Z,0.70
2018-08-06T14:54:10.560Z,1.25
2018-08-06T14:57:08.107Z,1.10
2018-08-06T15:00:05.498Z,1.10
2018-08-06T15:03:02.429Z,0.98
2018-08-06T15:05:59.487Z,1.12
2018-08-06T15:08:56.637Z,1.10
2018-08-06T15:11:53.883Z,1.00
2018-08-06T15:14:51.252Z,1.20
2018-08-06T15:17:49.221Z,1.20
2018-08-06T15:20:46.658Z,1.30
2018-08-06T15:23:44.156Z,1.20
2018-08-06T15:26:41.504Z,1.30
2018-08-06T15:29:38.977Z,2.27
2018-08-06T15:32:36.329Z,2.90
2018-08-06T15:35:33.692Z,1.73
2018-08-06T15:38:31.032Z,1.50
2018-08-06T15:41:28.736Z,1.95
2018-08-06T15:44:25.960Z,1.27
2018-08-06T15:47:22.948Z,1.20
2018-08-06T15:50:22.725Z,1.00
2018-08-06T15:53:20.591Z,1.47
2018-08-06T15:56:18.463Z,1.20
2018-08-06T15:59:15.688Z,1.10
2018-08-06T16:02:13.256Z,1.20
2018-08-06T16:05:11.118Z,1.00
2018-08-06T16:08:09.139Z,1.02
2018-08-06T16:11:06.908Z,1.30
2018-08-06T16:14:04.809Z,1.00
2018-08-06T16:17:02.948Z,1.30
2018-08-06T16:20:00.551Z,1.20
2018-08-06T16:22:57.776Z,1.50
2018-08-06T16:25:55.398Z,1.22
2018-08-06T16:28:53.083Z,1.20
2018-08-06T16:31:50.281Z,1.27
2018-08-06T16:34:48.166Z,1.20
2018-08-06T16:37:46.350Z,1.47
2018-08-06T16:40:44.514Z,1.20
2018-08-06T16:43:42.443Z,1.00
2018-08-06T16:46:40.698Z,1.25
2018-08-06T16:49:38.719Z,1.30
2018-08-06T16:52:36.875Z,1.22
2018-08-06T16:55:34.222Z,1.30
2018-08-06T16:58:31.514Z,1.40
2018-08-06T17:01:28.732Z,1.30
2018-08-06T17:04:26.925Z,1.30
2018-08-06T17:07:24.149Z,1.52
2018-08-06T17:10:22.235Z,1.33
2018-08-06T17:13:19.319Z,1.33
2018-08-06T17:16:17.488Z,1.50
2018-08-06T17:19:14.608Z,1.40
2018-08-06T17:22:11.955Z,1.30
2018-08-06T17:25:09.970Z,1.50
2018-08-06T17:28:07.892Z,1.40
2018-08-06T17:31:05.470Z,3.90
2018-08-06T17:34:03.185Z,1.33
2018-08-06T17:37:00.284Z,1.77
2018-08-06T17:39:57.779Z,1.50
2018-08-06T17:42:55.040Z,1.00
2018-08-06T17:45:52.475Z,1.20
2018-08-06T17:48:49.899Z,1.70
2018-08-06T17:51:47.799Z,3.67
2018-08-06T17:54:45.402Z,1.87
2018-08-06T17:57:42.935Z,1.17
2018-08-06T18:00:40.217Z,1.00
2018-08-06T18:03:37.407Z,1.20
2018-08-06T18:06:35.455Z,1.03
2018-08-06T18:09:33.312Z,1.20
2018-08-06T18:12:30.793Z,1.43
2018-08-06T18:15:28.502Z,1.30
2018-08-06T18:18:25.875Z,1.50
2018-08-06T18:21:23.050Z,1.37
2018-08-06T18:24:21.194Z,1.20
2018-08-06T18:27:19.183Z,1.20
2018-08-06T18:30:17.065Z,1.20
2018-08-06T18:33:15.077Z,1.13
2018-08-06T18:36:13.104Z,1.20
2018-08-06T18:39:11.444Z,1.40
2018-08-06T18:42:08.802Z,1.50
2018-08-06T18:45:06.736Z,1.40
2018-08-06T18:48:04.749Z,1.97
2018-08-06T18:51:02.135Z,2.00
2018-08-06T18:53:59.379Z,1.70
2018-08-06T18:56:56.779Z,1.80
2018-08-06T18:59:54.194Z,1.93
2018-08-06T19:02:51.354Z,1.80
2018-08-06T19:05:48.550Z,1.80
2018-08-06T19:08:45.747Z,1.70
2018-08-06T19:11:43.829Z,1.80
2018-08-06T19:14:41.492Z,1.83
2018-08-06T19:17:39.764Z,1.67
2018-08-06T19:20:38.036Z,1.60
2018-08-06T19:23:36.035Z,2.00
2018-08-06T19:26:33.274Z,1.73
2018-08-06T19:29:31.102Z,1.77
2018-08-06T19:32:28.288Z,1.47
2018-08-06T19:35:25.588Z,2.43
2018-08-06T19:38:23.753Z,1.93
2018-08-06T19:41:21.613Z,2.07
2018-08-06T19:44:18.539Z,2.07
2018-08-06T19:47:16.588Z,2.10
2018-08-06T19:50:19.898Z,2.27
2018-08-06T19:53:17.953Z,2.20
2018-08-06T19:56:22.004Z,2.00
2018-08-06T19:59:19.352Z,2.10
2018-08-06T20:02:17.328Z,2.13
2018-08-06T20:05:15.007Z,2.23
2018-08-06T20:08:12.988Z,2.30
2018-08-06T20:11:10.883Z,2.33
2018-08-06T20:14:07.946Z,2.20
2018-08-06T20:17:05.076Z,2.30
2018-08-06T20:20:02.388Z,2.30
2018-08-06T20:22:59.542Z,2.50
2018-08-06T20:25:56.555Z,2.10
2018-08-06T20:28:53.732Z,2.40
2018-08-06T20:31:50.852Z,2.23
2018-08-06T20:34:48.182Z,2.33
2018-08-06T20:37:45.576Z,2.37
2018-08-06T20:40:43.015Z,2.23
2018-08-06T20:43:40.628Z,2.53
2018-08-06T20:46:37.744Z,2.10
2018-08-06T20:49:35.030Z,2.30
2018-08-06T20:52:32.531Z,2.40
2018-08-06T20:55:30.548Z,2.40
2018-08-06T20:58:28.414Z,2.40
2018-08-06T21:01:26.410Z,2.37
2018-08-06T21:04:23.621Z,1.97
2018-08-06T21:07:20.824Z,2.30
2018-08-06T21:10:20.874Z,2.17
2018-08-06T21:13:18.313Z,2.37
2018-08-06T21:16:16.195Z,2.10
2018-08-06T21:19:14.151Z,2.30
2018-08-06T21:22:11.988Z,2.00
2018-08-06T21:25:08.942Z,1.93
2018-08-06T21:28:06.970Z,2.30
2018-08-06T21:31:04.989Z,2.10
2018-08-06T21:34:02.084Z,2.10
2018-08-06T21:37:00.129Z,2.47
2018-08-06T21:39:58.214Z,2.40
2018-08-06T21:42:57.134Z,2.17
2018-08-06T21:45:54.976Z,2.63
2018-08-06T21:48:52.946Z,2.20
2018-08-06T21:51:51.096Z,2.30
2018-08-06T21:54:49.092Z,2.57
2018-08-06T21:57:46.336Z,2.17
2018-08-06T22:00:59.417Z,2.27
2018-08-06T22:03:57.313Z,2.30
2018-08-06T22:06:55.152Z,2.20
2018-08-06T22:09:53.131Z,2.20
2018-08-06T22:12:50.988Z,2.17
2018-08-06T22:15:48.931Z,1.90
2018-08-06T22:18:46.132Z,2.10
2018-08-06T22:21:43.360Z,2.20
2018-08-06T22:24:41.440Z,2.10
2018-08-06T22:27:38.607Z,2.40
2018-08-06T22:30:35.841Z,2.37
2018-08-06T22:33:33.732Z,2.27
2018-08-06T22:36:31.467Z,2.23
2018-08-06T22:39:30.446Z,2.40
2018-08-06T22:42:28.161Z,2.07
2018-08-06T22:45:25.812Z,1.97
2018-08-06T22:48:23.023Z,2.43
2018-08-06T22:51:20.427Z,2.10
2018-08-06T22:54:18.392Z,2.03
2018-08-06T22:57:15.778Z,2.40
2018-08-06T23:00:13.838Z,2.43
2018-08-06T23:03:12.072Z,2.20
2018-08-06T23:06:09.239Z,2.40
2018-08-06T23:09:07.253Z,2.40
2018-08-06T23:12:04.847Z,2.30
2018-08-06T23:15:02.409Z,2.23
2018-08-06T23:18:00.130Z,2.10
2018-08-06T23:20:57.748Z,2.60
2018-08-06T23:23:55.338Z,2.60
2018-08-06T23:26:52.376Z,2.40
2018-08-06T23:29:49.819Z,2.20
2018-08-06T23:32:47.136Z,1.90
2018-08-06T23:35:44.227Z,2.10
2018-08-06T23:38:42.275Z,2.70
2018-08-06T23:41:40.171Z,2.53
2018-08-06T23:44:37.326Z,1.97
2018-08-06T23:47:35.220Z,2.50
2018-08-06T23:50:34.265Z,2.20
2018-08-06T23:53:32.420Z,2.10
2018-08-06T23:56:30.463Z,2.73
2018-08-06T23:59:27.619Z,2.23
